createdAt,value
2022-11-19T00:00:20.630Z,5.10
2022-11-19T00:02:50.225Z,5.10
2022-11-19T00:05:18.747Z,5.20
2022-11-19T00:07:48.452Z,5.20
2022-11-19T00:10:19.003Z,5.20
2022-11-19T00:12:55.022Z,5.30
2022-11-19T00:15:23.587Z,5.30
2022-11-19T00:17:51.972Z,5.40
2022-11-19T00:20:20.378Z,5.50
2022-11-19T00:22:54.208Z,5.60
2022-11-19T00:25:23.187Z,5.70
2022-11-19T00:27:51.519Z,5.70
2022-11-19T00:30:46.506Z,5.60
2022-11-19T00:33:09.367Z,5.60
2022-11-19T00:35:37.691Z,5.50
2022-11-19T00:38:07.478Z,5.50
2022-11-19T00:40:35.818Z,5.50
2022-11-19T00:43:21.246Z,5.40
2022-11-19T00:45:50.321Z,5.20
2022-11-19T00:48:18.665Z,5.10
2022-11-19T00:50:47.026Z,5.00
2022-11-19T00:53:16.710Z,5.00
2022-11-19T00:55:45.174Z,5.00
2022-11-19T00:58:13.943Z,5.00
2022-11-19T01:00:42.376Z,5.00
2022-11-19T01:03:10.704Z,5.00
2022-11-19T01:05:39.158Z,5.00
2022-11-19T01:08:07.573Z,5.00
2022-11-19T01:10:37.413Z,5.00
2022-11-19T01:13:23.331Z,5.00
2022-11-19T01:15:52.192Z,4.90
2022-11-19T01:18:22.008Z,4.90
2022-11-19T01:20:50.534Z,4.90
2022-11-19T01:23:18.942Z,4.90
2022-11-19T01:25:48.696Z,4.90
2022-11-19T01:28:17.048Z,4.90
2022-11-19T01:30:45.891Z,4.90
2022-11-19T01:33:16.639Z,4.80
2022-11-19T01:35:45.005Z,4.80
2022-11-19T01:38:13.315Z,4.70
2022-11-19T01:40:45.827Z,4.70
2022-11-19T01:43:15.592Z,4.70
2022-11-19T01:45:45.722Z,4.60
2022-11-19T01:48:19.440Z,4.60
2022-11-19T01:50:53.474Z,4.50
2022-11-19T01:53:23.419Z,4.40
2022-11-19T01:55:55.052Z,4.40
2022-11-19T01:58:26.441Z,4.30
2022-11-19T02:00:54.835Z,4.30
2022-11-19T02:03:23.289Z,4.20
2022-11-19T02:05:52.514Z,4.20
2022-11-19T02:08:40.888Z,4.20
2022-11-19T02:11:41.862Z,4.20
2022-11-19T02:14:28.917Z,4.10
2022-11-19T02:17:07.575Z,4.10
2022-11-19T02:20:05.528Z,4.10
2022-11-19T02:22:56.371Z,4.10
2022-11-19T02:25:41.291Z,4.00
2022-11-19T02:28:30.108Z,3.90
2022-11-19T02:31:07.736Z,3.90
2022-11-19T02:33:45.459Z,3.90
2022-11-19T02:36:23.250Z,3.80
2022-11-19T02:38:57.607Z,3.60
2022-11-19T02:41:35.156Z,3.60
2022-11-19T02:44:30.146Z,3.60
2022-11-19T02:47:02.800Z,3.60
2022-11-19T02:49:35.303Z,3.70
2022-11-19T02:52:05.435Z,3.80
2022-11-19T02:54:35.932Z,4.00
2022-11-19T02:57:04.486Z,4.10
2022-11-19T02:59:56.830Z,4.10
2022-11-19T03:02:48.544Z,4.20
2022-11-19T03:05:20.357Z,4.20
2022-11-19T03:07:50.462Z,4.20
2022-11-19T03:10:21.115Z,4.20
2022-11-19T03:12:54.794Z,4.20
2022-11-19T03:16:00.898Z,4.20
2022-11-19T03:18:36.360Z,4.30
2022-11-19T03:21:12.913Z,4.30
2022-11-19T03:23:44.186Z,4.30
2022-11-19T03:26:22.896Z,4.40
2022-11-19T03:28:54.298Z,4.50
2022-11-19T03:31:25.090Z,4.50
2022-11-19T03:33:58.249Z,4.60
2022-11-19T03:36:34.231Z,4.60
2022-11-19T03:39:08.670Z,4.80
2022-11-19T03:41:39.029Z,4.80
2022-11-19T03:44:12.758Z,4.90
2022-11-19T03:46:42.814Z,4.90
2022-11-19T03:49:13.817Z,4.90
2022-11-19T03:51:46.046Z,4.80
2022-11-19T03:54:17.005Z,4.60
2022-11-19T03:56:48.813Z,4.60
2022-11-19T03:59:20.177Z,4.60
2022-11-19T04:01:51.817Z,4.70
2022-11-19T04:04:39.494Z,4.80
2022-11-19T04:07:10.829Z,4.80
2022-11-19T04:09:40.096Z,4.80
2022-11-19T04:12:09.678Z,4.80
2022-11-19T04:14:37.993Z,4.90
2022-11-19T04:17:08.427Z,4.90
2022-11-19T04:19:38.177Z,4.90
2022-11-19T04:22:09.007Z,4.90
2022-11-19T04:24:37.589Z,4.90
2022-11-19T04:27:06.263Z,5.00
2022-11-19T04:29:34.649Z,5.00
2022-11-19T04:32:02.901Z,5.10
2022-11-19T04:34:31.227Z,5.10
2022-11-19T04:37:00.982Z,5.00
2022-11-19T04:39:31.613Z,5.00
2022-11-19T04:42:00.075Z,5.10
2022-11-19T04:44:28.410Z,5.10
2022-11-19T04:46:56.767Z,5.20
2022-11-19T04:49:27.458Z,5.30
2022-11-19T04:51:55.776Z,5.40
2022-11-19T04:54:25.435Z,5.50
2022-11-19T04:56:53.717Z,5.50
2022-11-19T04:59:22.292Z,5.60
2022-11-19T05:01:50.842Z,5.60
2022-11-19T05:04:21.587Z,5.60
2022-11-19T05:06:49.918Z,5.60
2022-11-19T05:09:18.506Z,5.60
2022-11-19T05:11:48.489Z,5.60
2022-11-19T05:14:18.882Z,5.70
2022-11-19T05:16:47.133Z,5.70
2022-11-19T05:19:15.432Z,5.80
2022-11-19T05:21:43.701Z,5.80
2022-11-19T05:24:12.221Z,5.80
2022-11-19T05:26:40.462Z,5.90
2022-11-19T05:29:10.192Z,5.90
2022-11-19T05:31:40.886Z,5.90
2022-11-19T05:34:09.385Z,6.00
2022-11-19T05:36:37.626Z,6.00
2022-11-19T05:39:08.202Z,6.00
2022-11-19T05:41:36.633Z,6.00
2022-11-19T05:44:05.131Z,6.00
2022-11-19T05:46:34.817Z,6.00
2022-11-19T05:49:03.167Z,6.00
2022-11-19T05:51:31.476Z,6.00
2022-11-19T05:53:59.775Z,6.10
2022-11-19T05:56:28.106Z,6.10
2022-11-19T05:58:58.738Z,6.20
2022-11-19T06:01:30.948Z,6.20
2022-11-19T06:04:01.023Z,6.00
2022-11-19T06:06:31.489Z,6.00
2022-11-19T06:08:59.770Z,6.00
2022-11-19T06:11:45.247Z,6.00
2022-11-19T06:14:13.525Z,6.10
2022-11-19T06:16:41.895Z,6.10
2022-11-19T06:19:11.820Z,6.10
2022-11-19T06:21:40.199Z,6.10
2022-11-19T06:24:08.681Z,6.10
2022-11-19T06:26:37.992Z,6.20
2022-11-19T06:29:07.122Z,6.30
2022-11-19T06:31:35.890Z,6.40
2022-11-19T06:34:04.214Z,6.40
2022-11-19T06:36:39.035Z,6.50
2022-11-19T06:39:11.822Z,6.50
2022-11-19T06:41:40.167Z,6.60
2022-11-19T06:44:08.455Z,6.60
2022-11-19T06:46:36.759Z,6.50
2022-11-19T06:49:05.899Z,6.60
2022-11-19T06:51:35.792Z,6.60
2022-11-19T06:54:04.063Z,6.60
2022-11-19T06:56:32.394Z,6.60
2022-11-19T06:59:00.679Z,6.50
2022-11-19T07:01:31.837Z,6.50
2022-11-19T07:04:00.156Z,6.50
2022-11-19T07:06:30.644Z,6.50
2022-11-19T07:09:00.334Z,6.50
2022-11-19T07:11:28.667Z,6.50
2022-11-19T07:13:58.701Z,6.40
2022-11-19T07:16:29.251Z,6.40
2022-11-19T07:19:01.554Z,6.40
2022-11-19T07:21:31.101Z,6.40
2022-11-19T07:24:05.285Z,6.40
2022-11-19T07:26:35.026Z,6.50
2022-11-19T07:29:05.143Z,6.60
2022-11-19T07:31:34.291Z,6.60
2022-11-19T07:34:02.778Z,6.70
2022-11-19T07:36:31.034Z,6.70
2022-11-19T07:39:00.743Z,6.80
2022-11-19T07:41:46.462Z,6.80
2022-11-19T07:44:14.818Z,6.80
2022-11-19T07:46:43.342Z,6.90
2022-11-19T07:49:11.686Z,7.10
2022-11-19T07:51:39.983Z,7.30
2022-11-19T07:54:11.753Z,7.60
2022-11-19T07:56:39.828Z,7.90
2022-11-19T07:59:08.245Z,8.10
2022-11-19T08:01:36.499Z,8.30
2022-11-19T08:04:05.601Z,8.60
2022-11-19T08:06:34.764Z,8.90
2022-11-19T08:09:06.939Z,9.20
2022-11-19T08:11:36.376Z,9.50
2022-11-19T08:14:04.711Z,9.80
2022-11-19T08:16:51.520Z,10.10
2022-11-19T08:19:22.484Z,10.20
2022-11-19T08:21:51.351Z,10.30
2022-11-19T08:24:21.924Z,10.30
2022-11-19T08:26:52.417Z,10.40
2022-11-19T08:29:23.820Z,10.60
2022-11-19T08:31:53.009Z,10.80
2022-11-19T08:34:22.339Z,10.70
2022-11-19T08:36:51.051Z,10.70
2022-11-19T08:39:19.430Z,10.60
2022-11-19T08:42:08.906Z,10.70
2022-11-19T08:44:39.776Z,10.70
2022-11-19T08:47:07.890Z,10.90
2022-11-19T08:49:38.438Z,11.20
2022-11-19T08:52:06.573Z,11.40
2022-11-19T08:54:34.637Z,11.60
2022-11-19T08:57:04.247Z,11.60
2022-11-19T08:59:32.421Z,11.70
2022-11-19T09:02:00.438Z,11.60
2022-11-19T09:04:28.539Z,11.60
2022-11-19T09:06:56.661Z,11.50
2022-11-19T09:09:26.805Z,11.40
2022-11-19T09:11:56.004Z,11.30
2022-11-19T09:14:25.525Z,11.20
2022-11-19T09:16:53.536Z,11.30
2022-11-19T09:19:23.890Z,11.40
2022-11-19T09:21:52.165Z,11.50
2022-11-19T09:24:20.458Z,11.70
2022-11-19T09:26:52.648Z,11.80
2022-11-19T09:29:21.552Z,11.80
2022-11-19T09:31:51.319Z,11.60
2022-11-19T09:34:22.653Z,11.50
2022-11-19T09:36:51.927Z,11.40
2022-11-19T09:39:20.374Z,11.50
2022-11-19T09:41:55.204Z,11.50
2022-11-19T09:44:42.455Z,11.60
2022-11-19T09:47:23.980Z,11.60
2022-11-19T09:50:03.218Z,11.50
2022-11-19T09:52:34.531Z,11.50
2022-11-19T09:55:03.693Z,11.60
2022-11-19T09:57:37.931Z,11.60
2022-11-19T10:00:09.484Z,11.60
2022-11-19T10:02:41.898Z,11.70
2022-11-19T10:05:16.015Z,11.70
2022-11-19T10:07:54.647Z,11.80
2022-11-19T10:10:34.205Z,11.70
2022-11-19T10:13:14.847Z,11.70
2022-11-19T10:16:00.761Z,11.70
2022-11-19T10:18:41.335Z,11.70
2022-11-19T10:21:15.562Z,11.70
2022-11-19T10:23:52.914Z,11.70
2022-11-19T10:26:33.643Z,11.60
2022-11-19T10:29:04.862Z,11.50
2022-11-19T10:31:38.572Z,11.50
2022-11-19T10:34:16.634Z,11.50
2022-11-19T10:36:49.187Z,11.50
2022-11-19T10:39:23.982Z,11.50
2022-11-19T10:41:57.157Z,11.50
2022-11-19T10:44:40.520Z,11.40
2022-11-19T10:47:15.502Z,11.50
2022-11-19T10:49:45.654Z,11.50
2022-11-19T10:52:24.181Z,11.50
2022-11-19T10:54:56.445Z,11.50
2022-11-19T10:57:25.918Z,11.50
2022-11-19T10:59:55.821Z,11.50
2022-11-19T11:02:31.521Z,11.50
2022-11-19T11:05:14.015Z,11.50
2022-11-19T11:07:50.658Z,11.60
2022-11-19T11:10:26.527Z,11.60
2022-11-19T11:13:13.614Z,11.70
2022-11-19T11:15:48.433Z,11.80
2022-11-19T11:18:17.437Z,11.80
2022-11-19T11:20:50.931Z,11.80
2022-11-19T11:23:20.998Z,11.80
2022-11-19T11:26:01.079Z,11.80
2022-11-19T11:28:29.792Z,11.70
2022-11-19T11:31:00.513Z,11.60
2022-11-19T11:33:34.805Z,11.70
2022-11-19T11:36:08.173Z,11.70
2022-11-19T11:38:43.649Z,11.70
2022-11-19T11:44:03.689Z,11.70
2022-11-19T11:46:37.473Z,11.80
2022-11-19T11:49:12.469Z,11.80
2022-11-19T11:51:42.707Z,11.80
2022-11-19T11:54:18.272Z,11.70
2022-11-19T11:56:46.964Z,11.60
2022-11-19T11:59:24.137Z,11.50
2022-11-19T12:01:55.954Z,11.50
2022-11-19T12:04:24.556Z,11.40
2022-11-19T12:07:08.300Z,11.40
2022-11-19T12:09:42.542Z,11.40
2022-11-19T12:12:14.489Z,11.40
2022-11-19T12:14:45.903Z,11.40
2022-11-19T12:17:29.888Z,11.40
2022-11-19T12:20:23.509Z,11.30
2022-11-19T12:23:08.234Z,11.40
2022-11-19T12:25:41.859Z,11.40
2022-11-19T12:28:28.881Z,11.40
2022-11-19T12:31:16.069Z,11.40
2022-11-19T12:34:02.974Z,11.40
2022-11-19T12:36:39.813Z,11.40
2022-11-19T12:39:24.265Z,11.30
2022-11-19T12:42:18.544Z,11.30
2022-11-19T12:44:58.441Z,11.20
2022-11-19T12:47:44.914Z,11.20
2022-11-19T12:50:20.314Z,11.20
2022-11-19T12:53:04.856Z,11.20
2022-11-19T12:55:43.300Z,11.30
2022-11-19T12:58:23.135Z,11.20
2022-11-19T13:00:56.054Z,11.20
2022-11-19T13:03:38.182Z,11.10
2022-11-19T13:06:16.723Z,11.00
2022-11-19T13:08:52.855Z,11.00
2022-11-19T13:11:27.209Z,11.10
2022-11-19T13:14:01.316Z,11.10
2022-11-19T13:16:31.811Z,11.10
2022-11-19T13:19:22.640Z,11.10
2022-11-19T13:21:56.666Z,11.10
2022-11-19T13:24:33.658Z,11.10
2022-11-19T13:27:06.615Z,11.10
2022-11-19T13:29:43.887Z,11.20
2022-11-19T13:32:20.242Z,11.10
2022-11-19T13:35:01.437Z,11.10
2022-11-19T13:37:51.648Z,11.10
2022-11-19T13:40:27.054Z,11.20
2022-11-19T13:46:15.236Z,11.20
2022-11-19T13:48:47.045Z,11.20
2022-11-19T13:51:22.085Z,11.10
2022-11-19T13:53:50.799Z,11.10
2022-11-19T13:56:20.182Z,11.10
2022-11-19T13:58:52.590Z,11.10
2022-11-19T14:01:43.272Z,11.10
2022-11-19T14:04:36.149Z,11.20
2022-11-19T14:07:34.411Z,11.10
2022-11-19T14:10:12.677Z,11.20
2022-11-19T14:13:04.204Z,11.20
2022-11-19T14:16:08.796Z,11.20
2022-11-19T14:18:58.488Z,11.30
2022-11-19T14:22:05.578Z,11.20
2022-11-19T14:25:11.005Z,11.20
2022-11-19T14:27:39.889Z,11.20
2022-11-19T14:30:11.227Z,11.20
2022-11-19T14:32:47.009Z,11.30
2022-11-19T14:35:32.071Z,11.30
2022-11-19T14:38:21.982Z,11.40
2022-11-19T14:41:05.307Z,11.30
2022-11-19T14:44:06.633Z,11.40
2022-11-19T14:46:41.826Z,11.30
2022-11-19T14:49:38.956Z,11.30
2022-11-19T14:52:20.690Z,11.20
2022-11-19T14:54:56.332Z,11.20
2022-11-19T14:57:29.718Z,11.20
2022-11-19T15:00:01.485Z,11.20
2022-11-19T15:02:34.711Z,11.10
2022-11-19T15:05:08.810Z,11.10
2022-11-19T15:07:41.304Z,11.00
2022-11-19T15:10:46.402Z,10.70
2022-11-19T15:13:27.843Z,10.70
2022-11-19T15:15:58.880Z,10.70
2022-11-19T15:18:51.218Z,10.70
2022-11-19T15:21:45.993Z,10.70
2022-11-19T15:24:27.091Z,10.70
2022-11-19T15:27:04.569Z,10.80
2022-11-19T15:30:05.631Z,10.80
2022-11-19T15:32:53.459Z,10.90
2022-11-19T15:35:47.184Z,10.90
2022-11-19T15:38:30.486Z,11.00
2022-11-19T15:41:02.355Z,11.10
2022-11-19T15:43:41.007Z,11.10
2022-11-19T15:46:13.511Z,11.00
2022-11-19T15:48:54.077Z,11.00
2022-11-19T15:51:25.175Z,11.10
2022-11-19T15:54:02.360Z,11.10
2022-11-19T15:56:34.888Z,11.00
2022-11-19T15:59:07.562Z,10.90
2022-11-19T16:01:36.898Z,10.90
2022-11-19T16:04:10.051Z,10.90
2022-11-19T16:06:44.784Z,11.00
2022-11-19T16:09:20.624Z,11.00
2022-11-19T16:12:06.774Z,11.10
2022-11-19T16:14:52.764Z,11.00
2022-11-19T16:17:41.681Z,10.80
2022-11-19T16:20:23.088Z,10.80
2022-11-19T16:22:58.125Z,10.90
2022-11-19T16:25:33.092Z,10.90
2022-11-19T16:28:05.758Z,10.90
2022-11-19T16:30:47.055Z,10.90
2022-11-19T16:33:20.522Z,10.80
2022-11-19T16:35:52.951Z,10.80
2022-11-19T16:38:28.184Z,10.70
2022-11-19T16:41:15.645Z,10.70
2022-11-19T16:43:48.574Z,10.70
2022-11-19T16:46:21.392Z,10.70
2022-11-19T16:48:57.899Z,10.70
2022-11-19T16:51:40.825Z,10.70
2022-11-19T16:54:12.458Z,10.70
2022-11-19T16:56:47.818Z,10.70
2022-11-19T16:59:21.436Z,10.60
2022-11-19T17:01:57.604Z,10.60
2022-11-19T17:04:28.601Z,10.50
2022-11-19T17:06:58.025Z,10.50
2022-11-19T17:09:44.367Z,10.50
2022-11-19T17:12:28.525Z,10.40
2022-11-19T17:15:00.873Z,10.40
2022-11-19T17:17:40.697Z,10.40
2022-11-19T17:20:51.546Z,10.30
2022-11-19T17:23:21.774Z,10.30
2022-11-19T17:25:52.123Z,10.30
2022-11-19T17:28:26.538Z,10.30
2022-11-19T17:30:56.749Z,10.30
2022-11-19T17:33:27.177Z,10.30
2022-11-19T17:35:56.154Z,10.30
2022-11-19T17:38:27.601Z,10.20
2022-11-19T17:40:58.124Z,10.10
2022-11-19T17:43:49.747Z,10.10
2022-11-19T17:46:21.504Z,10.10
2022-11-19T17:48:51.143Z,10.20
2022-11-19T17:51:21.332Z,10.20
2022-11-19T17:53:51.378Z,10.20
2022-11-19T17:56:21.861Z,10.10
2022-11-19T17:58:51.657Z,10.10
2022-11-19T18:01:20.436Z,10.10
2022-11-19T18:03:49.269Z,10.10
2022-11-19T18:06:18.856Z,10.10
2022-11-19T18:08:47.604Z,10.10
2022-11-19T18:11:18.866Z,10.10
2022-11-19T18:13:48.077Z,10.00
2022-11-19T18:16:21.706Z,10.00
2022-11-19T18:18:50.190Z,10.00
2022-11-19T18:21:20.700Z,10.00
2022-11-19T18:23:49.828Z,10.10
2022-11-19T18:26:19.893Z,10.00
2022-11-19T18:28:50.610Z,9.90
2022-11-19T18:31:22.475Z,9.80
2022-11-19T18:33:52.013Z,9.60
2022-11-19T18:36:20.334Z,9.30
2022-11-19T18:38:48.728Z,9.20
2022-11-19T18:41:19.773Z,9.00
2022-11-19T18:44:06.183Z,9.00
2022-11-19T18:46:35.930Z,9.00
2022-11-19T18:49:04.520Z,9.00
2022-11-19T18:51:33.284Z,9.20
2022-11-19T18:54:02.093Z,9.30
2022-11-19T18:56:30.490Z,9.40
2022-11-19T18:59:03.343Z,9.40
2022-11-19T19:01:33.385Z,9.50
2022-11-19T19:04:03.228Z,9.50
2022-11-19T19:06:31.921Z,9.60
2022-11-19T19:09:00.300Z,9.60
2022-11-19T19:11:46.029Z,9.50
2022-11-19T19:14:14.623Z,9.50
2022-11-19T19:16:43.017Z,9.50
2022-11-19T19:19:14.397Z,9.50
2022-11-19T19:21:43.048Z,9.50
2022-11-19T19:24:11.596Z,9.50
2022-11-19T19:26:40.117Z,9.50
2022-11-19T19:29:08.877Z,9.50
2022-11-19T19:31:37.533Z,9.50
2022-11-19T19:34:06.055Z,9.50
2022-11-19T19:36:35.977Z,9.50
2022-11-19T19:39:06.770Z,9.40
2022-11-19T19:41:35.296Z,9.30
2022-11-19T19:44:05.410Z,9.20
2022-11-19T19:46:33.923Z,9.00
2022-11-19T19:49:02.299Z,9.00
2022-11-19T19:51:30.894Z,9.00
2022-11-19T19:54:01.325Z,8.80
2022-11-19T19:56:31.082Z,8.80
2022-11-19T19:59:01.531Z,8.60
2022-11-19T20:01:31.492Z,8.50
2022-11-19T20:04:04.351Z,8.60
2022-11-19T20:06:33.458Z,8.50
2022-11-19T20:09:08.200Z,8.50
2022-11-19T20:11:38.227Z,8.50
2022-11-19T20:14:07.517Z,8.50
2022-11-19T20:16:36.218Z,8.60
2022-11-19T20:19:04.602Z,8.50
2022-11-19T20:21:36.380Z,8.50
2022-11-19T20:24:12.063Z,8.60
2022-11-19T20:26:44.070Z,8.70
2022-11-19T20:29:16.974Z,8.80
2022-11-19T20:31:48.168Z,8.90
2022-11-19T20:34:17.361Z,8.80
2022-11-19T20:36:45.888Z,8.70
2022-11-19T20:39:15.625Z,8.70
2022-11-19T20:42:01.052Z,8.70
2022-11-19T20:44:30.491Z,8.70
2022-11-19T20:47:00.025Z,8.70
2022-11-19T20:49:30.192Z,8.80
2022-11-19T20:51:58.990Z,8.90
2022-11-19T20:54:29.155Z,8.90
2022-11-19T20:56:58.443Z,8.90
2022-11-19T20:59:27.887Z,8.90
2022-11-19T21:01:57.453Z,8.90
2022-11-19T21:04:27.398Z,8.90
2022-11-19T21:06:55.913Z,8.90
2022-11-19T21:09:25.210Z,8.80
2022-11-19T21:11:55.352Z,8.80
2022-11-19T21:14:26.157Z,8.80
2022-11-19T21:16:54.487Z,8.80
2022-11-19T21:19:23.349Z,8.90
2022-11-19T21:21:52.021Z,8.90
2022-11-19T21:24:20.363Z,8.90
2022-11-19T21:26:51.061Z,8.90
2022-11-19T21:29:21.145Z,8.90
2022-11-19T21:31:50.395Z,8.90
2022-11-19T21:34:20.862Z,8.90
2022-11-19T21:36:50.530Z,8.80
2022-11-19T21:39:20.318Z,8.80
2022-11-19T21:41:51.350Z,8.80
2022-11-19T21:44:22.144Z,8.80
2022-11-19T21:46:50.826Z,8.90
2022-11-19T21:49:19.392Z,8.90
2022-11-19T21:51:49.033Z,8.90
2022-11-19T21:54:17.398Z,8.90
2022-11-19T21:56:48.367Z,8.90
2022-11-19T21:59:16.771Z,8.90
2022-11-19T22:01:54.417Z,8.80
2022-11-19T22:04:23.225Z,8.80
2022-11-19T22:06:51.565Z,8.80
2022-11-19T22:09:20.464Z,8.80
2022-11-19T22:11:48.941Z,8.80
2022-11-19T22:14:17.305Z,8.80
2022-11-19T22:16:45.638Z,8.80
2022-11-19T22:19:15.571Z,8.80
2022-11-19T22:21:43.906Z,8.90
2022-11-19T22:24:13.887Z,8.90
2022-11-19T22:26:42.342Z,8.90
2022-11-19T22:29:10.906Z,8.90
2022-11-19T22:31:39.283Z,8.90
2022-11-19T22:34:08.011Z,9.00
2022-11-19T22:36:37.783Z,9.00
2022-11-19T22:39:09.120Z,8.90
2022-11-19T22:41:37.599Z,8.90
2022-11-19T22:44:06.427Z,8.90
2022-11-19T22:46:34.721Z,8.90
2022-11-19T22:49:02.993Z,8.90
2022-11-19T22:51:33.454Z,8.90
2022-11-19T22:54:03.236Z,8.80
2022-11-19T22:56:32.331Z,8.80
2022-11-19T22:59:03.154Z,8.80
2022-11-19T23:01:35.332Z,8.80
2022-11-19T23:04:06.816Z,8.80
2022-11-19T23:06:36.206Z,8.80
2022-11-19T23:09:06.677Z,8.80
2022-11-19T23:11:52.884Z,8.70
2022-11-19T23:14:25.304Z,8.70
2022-11-19T23:16:54.203Z,8.80
2022-11-19T23:19:23.432Z,8.80
2022-11-19T23:21:51.952Z,8.80
2022-11-19T23:24:21.765Z,8.80
2022-11-19T23:26:50.164Z,8.80
2022-11-19T23:29:18.974Z,8.70
2022-11-19T23:31:50.102Z,8.60
2022-11-19T23:34:18.532Z,8.60
2022-11-19T23:36:49.255Z,8.60
2022-11-19T23:39:18.765Z,8.50
2022-11-19T23:41:51.067Z,8.50
2022-11-19T23:44:19.539Z,8.50
2022-11-19T23:46:47.945Z,8.50
2022-11-19T23:49:16.246Z,8.50
2022-11-19T23:51:44.551Z,8.50
2022-11-19T23:54:13.918Z,8.50
2022-11-19T23:56:42.353Z,8.50
2022-11-19T23:59:12.161Z,8.50
